Airfield :







YOU CAN JOIN US ON...

 
LOGIN :

Register | Disclaimer

   EN    FR    IT 

 









Legend :    VFR   Marginal VFR   IFR   Intensive IFR   Very Intensive IFR
Visi :
Ceiling :
>= 8 km
>= 3000ft
5 to 8 km
1000 to 3000 ft
1500m to 5 km
500 to 1000 ft
800 to 1500m
200 to 500 ft
< 800m
< 200 ft
Symbols :   Thunderstorms  Fog  Heavy snow  Heavy precipitations  Wind > 20 kt






- Airport Elevation : 35 ft
- IATA code : YGR


CYGR - ëles-de-la-Madeleine

CURRENT METAR :
  • 152333Z 34009G15KT 15SM BKN045 09/07 A2994 RMK SC5 SLP139

EXPIRED METARs :
  • 152300Z 36013KT 15SM SCT006 BKN045 09/08 A2993 RMK SC3SC4 SLP137
  • 152229Z 35013KT 15SM BKN005 OVC045 09/08 A2992 RMK SC5SC3 SLP134
  • 152200Z 33012KT 15SM FEW008 BKN040 BKN060 10/09 A2992 RMK SC2SC3SC2 SLP132
  • 152119Z 31009KT 15SM SCT015 BKN042 10/09 A2990 RMK SC3SC4 SLP128
  • 152100Z 29009G15KT 10SM FEW004 BKN014 11/10 A2990 RMK SF1SC6 SLP127

TAF AMD TAF CYGR
Valid from the 15 at 22:00 until the 16 at 02:00 UTC


152239Z 1522/1602 35015KT P6SM SCT005 OVC040
TEMPO 1522/1524 BKN005 OVC040
FM160000 32012KT P6SM SCT020
TEMPO 1600/1602 BKN020 RMK NXT FCST WILL BE ISSUED AT 161045Z



MET'MAP, your aeronautical weather chart ! - Copyright ORBIFLY December 2007 - Disclaimer

ORBIFLY MET'MAP TEAM :

Programming & Development : Alexandra Zaïnal
Concept & Development : Baudouin d'Aumeries
Co-Development & Prog : Marc-Olivier Méhu
Technical & hardware support : Manuel Goepfert

Contact : metmap@orbifly.com




SOURCES & CREDITS :

   NOAA